sensor_id;sensor_type;location;lat;lon;timestamp;temperature;humidity
43049;DHT22;28673;44.412;11.918;2023-05-19T00:02:13;15.00;99.90
43049;DHT22;28673;44.412;11.918;2023-05-19T00:04:40;15.00;99.90
43049;DHT22;28673;44.412;11.918;2023-05-19T00:07:08;15.00;99.90
43049;DHT22;28673;44.412;11.918;2023-05-19T00:09:35;15.00;99.90
43049;DHT22;28673;44.412;11.918;2023-05-19T00:12:01;15.00;99.90
43049;DHT22;28673;44.412;11.918;2023-05-19T00:14:31;15.00;99.90
43049;DHT22;28673;44.412;11.918;2023-05-19T00:17:16;15.00;99.90
43049;DHT22;28673;44.412;11.918;2023-05-19T00:19:42;15.00;99.90
43049;DHT22;28673;44.412;11.918;2023-05-19T00:22:09;15.00;99.90
43049;DHT22;28673;44.412;11.918;2023-05-19T00:24:35;15.00;99.90
43049;DHT22;28673;44.412;11.918;2023-05-19T00:27:20;15.00;99.90
43049;DHT22;28673;44.412;11.918;2023-05-19T00:29:46;15.00;99.90
43049;DHT22;28673;44.412;11.918;2023-05-19T00:32:11;15.00;99.90
43049;DHT22;28673;44.412;11.918;2023-05-19T00:34:56;15.00;99.90
43049;DHT22;28673;44.412;11.918;2023-05-19T00:37:40;15.00;99.90
43049;DHT22;28673;44.412;11.918;2023-05-19T00:40:24;15.00;99.90
43049;DHT22;28673;44.412;11.918;2023-05-19T00:42:51;15.00;99.90
43049;DHT22;28673;44.412;11.918;2023-05-19T00:45:17;15.00;99.90
43049;DHT22;28673;44.412;11.918;2023-05-19T00:48:05;14.90;99.90
43049;DHT22;28673;44.412;11.918;2023-05-19T00:50:31;15.00;99.90
43049;DHT22;28673;44.412;11.918;2023-05-19T00:52:57;14.90;99.90
43049;DHT22;28673;44.412;11.918;2023-05-19T00:55:42;14.90;99.90
43049;DHT22;28673;44.412;11.918;2023-05-19T00:58:11;14.90;99.90
43049;DHT22;28673;44.412;11.918;2023-05-19T01:00:37;14.90;99.90
43049;DHT22;28673;44.412;11.918;2023-05-19T01:05:49;14.90;99.90
43049;DHT22;28673;44.412;11.918;2023-05-19T01:08:18;14.80;99.90
43049;DHT22;28673;44.412;11.918;2023-05-19T01:10:44;14.80;99.90
43049;DHT22;28673;44.412;11.918;2023-05-19T01:13:29;14.80;99.90
43049;DHT22;28673;44.412;11.918;2023-05-19T01:16:28;14.80;99.90
43049;DHT22;28673;44.412;11.918;2023-05-19T01:19:00;14.70;99.90
43049;DHT22;28673;44.412;11.918;2023-05-19T01:29:48;14.60;99.90
43049;DHT22;28673;44.412;11.918;2023-05-19T01:32:18;14.50;99.90
43049;DHT22;28673;44.412;11.918;2023-05-19T01:35:04;14.50;99.90
43049;DHT22;28673;44.412;11.918;2023-05-19T01:37:33;14.40;99.90
43049;DHT22;28673;44.412;11.918;2023-05-19T01:39:59;14.40;99.90
43049;DHT22;28673;44.412;11.918;2023-05-19T01:42:26;14.40;99.90
43049;DHT22;28673;44.412;11.918;2023-05-19T01:44:53;14.30;99.90
43049;DHT22;28673;44.412;11.918;2023-05-19T01:47:19;14.30;99.90
43049;DHT22;28673;44.412;11.918;2023-05-19T01:49:45;14.30;99.90
43049;DHT22;28673;44.412;11.918;2023-05-19T01:52:10;14.30;99.90
43049;DHT22;28673;44.412;11.918;2023-05-19T01:54:36;14.20;99.90
43049;DHT22;28673;44.412;11.918;2023-05-19T01:59:56;14.10;99.90
43049;DHT22;28673;44.412;11.918;2023-05-19T02:08:54;14.00;99.90
43049;DHT22;28673;44.412;11.918;2023-05-19T02:11:37;14.00;99.90
43049;DHT22;28673;44.412;11.918;2023-05-19T02:14:11;14.00;99.90
43049;DHT22;28673;44.412;11.918;2023-05-19T02:16:42;13.90;99.90
43049;DHT22;28673;44.412;11.918;2023-05-19T02:19:24;13.90;99.90
43049;DHT22;28673;44.412;11.918;2023-05-19T02:21:53;13.90;99.90
43049;DHT22;28673;44.412;11.918;2023-05-19T02:24:20;13.90;99.90
43049;DHT22;28673;44.412;11.918;2023-05-19T02:26:48;13.90;99.90
43049;DHT22;28673;44.412;11.918;2023-05-19T02:29:14;13.90;99.90
43049;DHT22;28673;44.412;11.918;2023-05-19T02:31:40;13.90;99.90
43049;DHT22;28673;44.412;11.918;2023-05-19T02:34:08;13.90;99.90
43049;DHT22;28673;44.412;11.918;2023-05-19T02:36:39;13.90;99.90
43049;DHT22;28673;44.412;11.918;2023-05-19T02:39:06;13.90;99.90
43049;DHT22;28673;44.412;11.918;2023-05-19T02:41:32;13.90;99.90
43049;DHT22;28673;44.412;11.918;2023-05-19T02:43:58;14.00;99.90
43049;DHT22;28673;44.412;11.918;2023-05-19T02:46:24;14.00;99.90
43049;DHT22;28673;44.412;11.918;2023-05-19T02:48:51;13.90;99.90
43049;DHT22;28673;44.412;11.918;2023-05-19T02:51:17;14.00;99.90
43049;DHT22;28673;44.412;11.918;2023-05-19T02:53:45;14.00;99.90
43049;DHT22;28673;44.412;11.918;2023-05-19T02:56:11;14.00;99.90
43049;DHT22;28673;44.412;11.918;2023-05-19T02:58:37;14.00;99.90
43049;DHT22;28673;44.412;11.918;2023-05-19T03:01:04;14.10;99.90
43049;DHT22;28673;44.412;11.918;2023-05-19T03:03:30;14.10;99.90
43049;DHT22;28673;44.412;11.918;2023-05-19T03:05:56;14.10;99.90
43049;DHT22;28673;44.412;11.918;2023-05-19T03:08:22;14.10;99.90
43049;DHT22;28673;44.412;11.918;2023-05-19T03:10:47;14.10;99.90
43049;DHT22;28673;44.412;11.918;2023-05-19T03:13:13;14.10;99.90
43049;DHT22;28673;44.412;11.918;2023-05-19T03:15:41;14.20;99.90
43049;DHT22;28673;44.412;11.918;2023-05-19T03:18:10;14.20;99.90
43049;DHT22;28673;44.412;11.918;2023-05-19T03:20:38;14.20;99.90
43049;DHT22;28673;44.412;11.918;2023-05-19T03:23:06;14.20;99.90
43049;DHT22;28673;44.412;11.918;2023-05-19T03:25:33;14.20;99.90
43049;DHT22;28673;44.412;11.918;2023-05-19T03:27:59;14.20;99.90
43049;DHT22;28673;44.412;11.918;2023-05-19T03:30:31;14.20;99.90
43049;DHT22;28673;44.412;11.918;2023-05-19T03:33:08;14.30;99.90
43049;DHT22;28673;44.412;11.918;2023-05-19T03:35:34;14.30;99.90
43049;DHT22;28673;44.412;11.918;2023-05-19T03:38:00;14.30;99.90
43049;DHT22;28673;44.412;11.918;2023-05-19T03:40:26;14.30;99.90
43049;DHT22;28673;44.412;11.918;2023-05-19T03:42:59;14.30;99.90
43049;DHT22;28673;44.412;11.918;2023-05-19T03:45:28;14.30;99.90
43049;DHT22;28673;44.412;11.918;2023-05-19T03:47:54;14.30;99.90
43049;DHT22;28673;44.412;11.918;2023-05-19T03:50:49;14.30;99.90
43049;DHT22;28673;44.412;11.918;2023-05-19T03:53:20;14.40;99.90
43049;DHT22;28673;44.412;11.918;2023-05-19T03:55:46;14.40;99.90
43049;DHT22;28673;44.412;11.918;2023-05-19T03:58:51;14.40;99.90
43049;DHT22;28673;44.412;11.918;2023-05-19T04:01:30;14.40;99.90
43049;DHT22;28673;44.412;11.918;2023-05-19T04:04:01;14.40;99.90
43049;DHT22;28673;44.412;11.918;2023-05-19T04:06:40;14.40;99.90
43049;DHT22;28673;44.412;11.918;2023-05-19T04:09:15;14.40;99.90
43049;DHT22;28673;44.412;11.918;2023-05-19T04:11:53;14.50;99.90
43049;DHT22;28673;44.412;11.918;2023-05-19T04:14:24;14.50;99.90
43049;DHT22;28673;44.412;11.918;2023-05-19T04:17:08;14.50;99.90
43049;DHT22;28673;44.412;11.918;2023-05-19T04:19:43;14.50;99.90
43049;DHT22;28673;44.412;11.918;2023-05-19T04:22:15;14.50;99.90
43049;DHT22;28673;44.412;11.918;2023-05-19T04:25:42;14.60;99.90
43049;DHT22;28673;44.412;11.918;2023-05-19T04:28:29;14.60;99.90
43049;DHT22;28673;44.412;11.918;2023-05-19T04:30:56;14.60;99.90
43049;DHT22;28673;44.412;11.918;2023-05-19T04:34:03;14.60;99.90
43049;DHT22;28673;44.412;11.918;2023-05-19T04:36:29;14.60;99.90
43049;DHT22;28673;44.412;11.918;2023-05-19T04:38:59;14.60;99.90
43049;DHT22;28673;44.412;11.918;2023-05-19T04:41:55;14.70;99.90
43049;DHT22;28673;44.412;11.918;2023-05-19T04:44:53;14.60;99.90
43049;DHT22;28673;44.412;11.918;2023-05-19T04:47:21;14.70;99.90
43049;DHT22;28673;44.412;11.918;2023-05-19T04:50:07;14.70;99.90
43049;DHT22;28673;44.412;11.918;2023-05-19T04:52:46;14.70;99.90
43049;DHT22;28673;44.412;11.918;2023-05-19T04:55:22;14.70;99.90
43049;DHT22;28673;44.412;11.918;2023-05-19T04:58:21;14.70;99.90
43049;DHT22;28673;44.412;11.918;2023-05-19T05:01:13;14.70;99.90
43049;DHT22;28673;44.412;11.918;2023-05-19T05:03:45;14.80;99.90
43049;DHT22;28673;44.412;11.918;2023-05-19T05:06:15;14.70;99.90
43049;DHT22;28673;44.412;11.918;2023-05-19T05:08:53;14.70;99.90
43049;DHT22;28673;44.412;11.918;2023-05-19T05:11:32;14.70;99.90
43049;DHT22;28673;44.412;11.918;2023-05-19T05:15:04;14.70;99.90
43049;DHT22;28673;44.412;11.918;2023-05-19T05:17:39;14.80;99.90
43049;DHT22;28673;44.412;11.918;2023-05-19T05:23:37;14.80;99.90
43049;DHT22;28673;44.412;11.918;2023-05-19T05:26:09;14.80;99.90
43049;DHT22;28673;44.412;11.918;2023-05-19T05:28:40;14.80;99.90
43049;DHT22;28673;44.412;11.918;2023-05-19T05:31:10;14.80;99.90
43049;DHT22;28673;44.412;11.918;2023-05-19T05:33:38;14.70;99.90
43049;DHT22;28673;44.412;11.918;2023-05-19T05:36:06;14.80;99.90
43049;DHT22;28673;44.412;11.918;2023-05-19T05:38:36;14.70;99.90
43049;DHT22;28673;44.412;11.918;2023-05-19T05:41:14;14.80;99.90
43049;DHT22;28673;44.412;11.918;2023-05-19T05:43:48;14.80;99.90
43049;DHT22;28673;44.412;11.918;2023-05-19T05:46:17;14.80;99.90
43049;DHT22;28673;44.412;11.918;2023-05-19T05:48:59;14.80;99.90
43049;DHT22;28673;44.412;11.918;2023-05-19T05:51:29;14.80;99.90
43049;DHT22;28673;44.412;11.918;2023-05-19T05:54:01;14.80;99.90
43049;DHT22;28673;44.412;11.918;2023-05-19T05:56:35;14.80;99.90
43049;DHT22;28673;44.412;11.918;2023-05-19T06:02:14;14.80;99.90
43049;DHT22;28673;44.412;11.918;2023-05-19T06:04:43;14.90;99.90
43049;DHT22;28673;44.412;11.918;2023-05-19T06:07:14;14.90;99.90
43049;DHT22;28673;44.412;11.918;2023-05-19T06:09:49;14.90;99.90
43049;DHT22;28673;44.412;11.918;2023-05-19T06:12:16;14.90;99.90
43049;DHT22;28673;44.412;11.918;2023-05-19T06:14:55;14.90;99.90
43049;DHT22;28673;44.412;11.918;2023-05-19T06:17:48;14.90;99.90
43049;DHT22;28673;44.412;11.918;2023-05-19T06:20:17;15.00;99.90
43049;DHT22;28673;44.412;11.918;2023-05-19T06:22:48;15.00;99.90
43049;DHT22;28673;44.412;11.918;2023-05-19T06:25:16;15.00;99.90
43049;DHT22;28673;44.412;11.918;2023-05-19T06:27:51;15.00;99.90
43049;DHT22;28673;44.412;11.918;2023-05-19T06:30:18;15.00;99.90
43049;DHT22;28673;44.412;11.918;2023-05-19T06:33:04;14.90;99.90
43049;DHT22;28673;44.412;11.918;2023-05-19T06:35:31;15.00;99.90
43049;DHT22;28673;44.412;11.918;2023-05-19T06:38:00;14.90;99.90
43049;DHT22;28673;44.412;11.918;2023-05-19T06:40:29;15.00;99.90
43049;DHT22;28673;44.412;11.918;2023-05-19T06:43:05;15.00;99.90
43049;DHT22;28673;44.412;11.918;2023-05-19T06:46:07;15.00;99.90
43049;DHT22;28673;44.412;11.918;2023-05-19T06:48:59;15.00;99.90
43049;DHT22;28673;44.412;11.918;2023-05-19T06:51:31;15.10;99.90
43049;DHT22;28673;44.412;11.918;2023-05-19T06:53:59;15.10;99.90
43049;DHT22;28673;44.412;11.918;2023-05-19T06:56:26;15.00;99.90
43049;DHT22;28673;44.412;11.918;2023-05-19T06:58:59;15.00;99.90
43049;DHT22;28673;44.412;11.918;2023-05-19T07:02:13;15.00;99.90
43049;DHT22;28673;44.412;11.918;2023-05-19T07:04:43;15.10;99.90
43049;DHT22;28673;44.412;11.918;2023-05-19T07:07:12;15.10;99.90
43049;DHT22;28673;44.412;11.918;2023-05-19T07:09:41;15.10;99.90
43049;DHT22;28673;44.412;11.918;2023-05-19T07:12:20;15.10;99.90
43049;DHT22;28673;44.412;11.918;2023-05-19T07:14:52;15.20;99.90
43049;DHT22;28673;44.412;11.918;2023-05-19T07:17:19;15.20;99.90
43049;DHT22;28673;44.412;11.918;2023-05-19T07:19:45;15.20;99.90
43049;DHT22;28673;44.412;11.918;2023-05-19T07:22:10;15.20;99.90
43049;DHT22;28673;44.412;11.918;2023-05-19T07:24:36;15.30;99.90
43049;DHT22;28673;44.412;11.918;2023-05-19T07:27:02;15.30;99.90
43049;DHT22;28673;44.412;11.918;2023-05-19T07:29:28;15.40;99.90
43049;DHT22;28673;44.412;11.918;2023-05-19T07:31:54;15.40;99.90
43049;DHT22;28673;44.412;11.918;2023-05-19T07:34:23;15.50;99.90
43049;DHT22;28673;44.412;11.918;2023-05-19T07:36:49;15.50;99.90
43049;DHT22;28673;44.412;11.918;2023-05-19T07:39:16;15.60;99.90
43049;DHT22;28673;44.412;11.918;2023-05-19T07:41:43;15.60;99.90
43049;DHT22;28673;44.412;11.918;2023-05-19T07:44:11;15.60;99.90
43049;DHT22;28673;44.412;11.918;2023-05-19T07:46:37;15.70;99.90
43049;DHT22;28673;44.412;11.918;2023-05-19T07:49:03;15.70;99.90
43049;DHT22;28673;44.412;11.918;2023-05-19T07:51:29;15.70;99.90
43049;DHT22;28673;44.412;11.918;2023-05-19T07:53:56;15.70;99.90
43049;DHT22;28673;44.412;11.918;2023-05-19T07:56:22;15.80;99.90
43049;DHT22;28673;44.412;11.918;2023-05-19T07:58:51;15.80;99.90
43049;DHT22;28673;44.412;11.918;2023-05-19T08:01:17;15.90;99.90
43049;DHT22;28673;44.412;11.918;2023-05-19T08:03:46;15.90;99.90
43049;DHT22;28673;44.412;11.918;2023-05-19T08:06:12;16.00;99.90
43049;DHT22;28673;44.412;11.918;2023-05-19T08:08:38;16.00;99.90
43049;DHT22;28673;44.412;11.918;2023-05-19T08:11:04;16.00;99.90
43049;DHT22;28673;44.412;11.918;2023-05-19T08:13:31;16.00;99.90
43049;DHT22;28673;44.412;11.918;2023-05-19T08:15:57;16.00;99.90
43049;DHT22;28673;44.412;11.918;2023-05-19T08:18:26;16.10;99.90
43049;DHT22;28673;44.412;11.918;2023-05-19T08:20:52;16.10;99.90
43049;DHT22;28673;44.412;11.918;2023-05-19T08:23:18;16.10;99.90
43049;DHT22;28673;44.412;11.918;2023-05-19T08:25:44;16.10;99.90
43049;DHT22;28673;44.412;11.918;2023-05-19T08:28:10;16.10;99.90
43049;DHT22;28673;44.412;11.918;2023-05-19T08:30:36;16.10;99.90
43049;DHT22;28673;44.412;11.918;2023-05-19T08:33:02;16.10;99.90
43049;DHT22;28673;44.412;11.918;2023-05-19T08:35:28;16.10;99.90
43049;DHT22;28673;44.412;11.918;2023-05-19T08:37:56;16.10;99.90
43049;DHT22;28673;44.412;11.918;2023-05-19T08:40:22;16.10;99.90
43049;DHT22;28673;44.412;11.918;2023-05-19T08:42:48;16.20;99.90
43049;DHT22;28673;44.412;11.918;2023-05-19T08:45:14;16.20;99.90
43049;DHT22;28673;44.412;11.918;2023-05-19T08:47:40;16.30;99.90
43049;DHT22;28673;44.412;11.918;2023-05-19T08:50:07;16.30;99.90
43049;DHT22;28673;44.412;11.918;2023-05-19T08:52:51;16.40;99.90
43049;DHT22;28673;44.412;11.918;2023-05-19T08:58:03;16.50;99.90
43049;DHT22;28673;44.412;11.918;2023-05-19T09:00:29;16.60;99.90
43049;DHT22;28673;44.412;11.918;2023-05-19T09:02:56;16.60;99.90
43049;DHT22;28673;44.412;11.918;2023-05-19T09:05:22;16.60;99.90
43049;DHT22;28673;44.412;11.918;2023-05-19T09:07:48;16.70;99.90
43049;DHT22;28673;44.412;11.918;2023-05-19T09:10:14;16.70;99.90
43049;DHT22;28673;44.412;11.918;2023-05-19T09:12:44;16.70;99.90
43049;DHT22;28673;44.412;11.918;2023-05-19T09:15:12;16.70;99.90
43049;DHT22;28673;44.412;11.918;2023-05-19T09:17:40;16.70;99.90
43049;DHT22;28673;44.412;11.918;2023-05-19T09:20:06;16.70;99.90
43049;DHT22;28673;44.412;11.918;2023-05-19T09:22:42;16.80;99.90
43049;DHT22;28673;44.412;11.918;2023-05-19T09:25:19;16.80;99.90
43049;DHT22;28673;44.412;11.918;2023-05-19T09:27:50;16.90;99.90
43049;DHT22;28673;44.412;11.918;2023-05-19T09:30:19;16.90;99.90
43049;DHT22;28673;44.412;11.918;2023-05-19T09:32:46;17.00;99.90
43049;DHT22;28673;44.412;11.918;2023-05-19T09:35:12;17.10;99.90
43049;DHT22;28673;44.412;11.918;2023-05-19T09:37:41;17.10;99.90
43049;DHT22;28673;44.412;11.918;2023-05-19T09:40:13;17.10;99.90
43049;DHT22;28673;44.412;11.918;2023-05-19T09:42:40;17.20;99.90
43049;DHT22;28673;44.412;11.918;2023-05-19T09:45:07;17.20;99.90
43049;DHT22;28673;44.412;11.918;2023-05-19T09:47:37;17.30;99.90
43049;DHT22;28673;44.412;11.918;2023-05-19T09:50:07;17.40;99.90
43049;DHT22;28673;44.412;11.918;2023-05-19T09:52:43;17.50;99.90
43049;DHT22;28673;44.412;11.918;2023-05-19T09:55:11;17.60;99.90
43049;DHT22;28673;44.412;11.918;2023-05-19T09:57:38;17.70;99.90
43049;DHT22;28673;44.412;11.918;2023-05-19T10:00:09;17.70;99.90
43049;DHT22;28673;44.412;11.918;2023-05-19T10:02:46;17.80;99.90
43049;DHT22;28673;44.412;11.918;2023-05-19T10:05:16;17.80;99.90
43049;DHT22;28673;44.412;11.918;2023-05-19T10:07:51;17.90;99.90
43049;DHT22;28673;44.412;11.918;2023-05-19T10:10:21;17.90;99.90
43049;DHT22;28673;44.412;11.918;2023-05-19T10:12:48;17.90;99.90
43049;DHT22;28673;44.412;11.918;2023-05-19T10:15:16;17.90;99.90
43049;DHT22;28673;44.412;11.918;2023-05-19T10:17:45;17.90;99.90
43049;DHT22;28673;44.412;11.918;2023-05-19T10:20:13;18.00;99.90
43049;DHT22;28673;44.412;11.918;2023-05-19T10:22:44;18.00;99.90
43049;DHT22;28673;44.412;11.918;2023-05-19T10:25:11;18.10;99.90
43049;DHT22;28673;44.412;11.918;2023-05-19T10:28:04;18.10;99.90
43049;DHT22;28673;44.412;11.918;2023-05-19T10:30:38;18.10;99.90
43049;DHT22;28673;44.412;11.918;2023-05-19T10:33:08;18.00;99.90
43049;DHT22;28673;44.412;11.918;2023-05-19T10:38:41;18.10;99.90
43049;DHT22;28673;44.412;11.918;2023-05-19T10:46:32;18.00;99.90
43049;DHT22;28673;44.412;11.918;2023-05-19T10:48:58;18.00;99.90
43049;DHT22;28673;44.412;11.918;2023-05-19T10:51:30;18.10;99.90
43049;DHT22;28673;44.412;11.918;2023-05-19T10:53:56;18.20;99.90
43049;DHT22;28673;44.412;11.918;2023-05-19T10:56:30;18.20;99.90
43049;DHT22;28673;44.412;11.918;2023-05-19T10:59:00;18.30;99.90
43049;DHT22;28673;44.412;11.918;2023-05-19T11:01:33;18.30;99.90
43049;DHT22;28673;44.412;11.918;2023-05-19T11:04:08;18.20;99.90
43049;DHT22;28673;44.412;11.918;2023-05-19T11:06:38;18.20;99.90
43049;DHT22;28673;44.412;11.918;2023-05-19T11:09:15;18.20;99.90
43049;DHT22;28673;44.412;11.918;2023-05-19T11:11:52;18.10;99.90
43049;DHT22;28673;44.412;11.918;2023-05-19T11:14:25;18.10;99.90
43049;DHT22;28673;44.412;11.918;2023-05-19T11:17:00;18.10;99.90
43049;DHT22;28673;44.412;11.918;2023-05-19T11:19:28;18.00;99.90
43049;DHT22;28673;44.412;11.918;2023-05-19T11:21:54;18.00;99.90
43049;DHT22;28673;44.412;11.918;2023-05-19T11:24:43;18.00;99.90
43049;DHT22;28673;44.412;11.918;2023-05-19T11:27:18;18.00;99.90
43049;DHT22;28673;44.412;11.918;2023-05-19T11:29:44;18.00;99.90
43049;DHT22;28673;44.412;11.918;2023-05-19T11:32:10;17.90;99.90
43049;DHT22;28673;44.412;11.918;2023-05-19T11:34:37;17.90;99.90
43049;DHT22;28673;44.412;11.918;2023-05-19T11:37:04;17.80;99.90
43049;DHT22;28673;44.412;11.918;2023-05-19T11:39:31;17.70;99.90
43049;DHT22;28673;44.412;11.918;2023-05-19T11:41:57;17.70;99.90
43049;DHT22;28673;44.412;11.918;2023-05-19T11:44:23;17.70;99.90
43049;DHT22;28673;44.412;11.918;2023-05-19T11:46:49;17.70;99.90
43049;DHT22;28673;44.412;11.918;2023-05-19T11:49:16;17.60;99.90
43049;DHT22;28673;44.412;11.918;2023-05-19T11:51:45;17.70;99.90
43049;DHT22;28673;44.412;11.918;2023-05-19T11:54:11;17.70;99.90
43049;DHT22;28673;44.412;11.918;2023-05-19T11:56:41;17.70;99.90
43049;DHT22;28673;44.412;11.918;2023-05-19T11:59:08;17.70;99.90
43049;DHT22;28673;44.412;11.918;2023-05-19T12:01:34;17.70;99.90
43049;DHT22;28673;44.412;11.918;2023-05-19T12:04:09;17.70;99.90
43049;DHT22;28673;44.412;11.918;2023-05-19T12:06:35;17.60;99.90
43049;DHT22;28673;44.412;11.918;2023-05-19T12:09:04;17.60;99.90
43049;DHT22;28673;44.412;11.918;2023-05-19T12:11:30;17.60;99.90
43049;DHT22;28673;44.412;11.918;2023-05-19T12:14:00;17.60;99.90
43049;DHT22;28673;44.412;11.918;2023-05-19T12:16:33;17.50;99.90
43049;DHT22;28673;44.412;11.918;2023-05-19T12:19:04;17.50;99.90
43049;DHT22;28673;44.412;11.918;2023-05-19T12:21:31;17.60;99.90
43049;DHT22;28673;44.412;11.918;2023-05-19T12:23:58;17.60;99.90
43049;DHT22;28673;44.412;11.918;2023-05-19T12:26:24;17.60;99.90
43049;DHT22;28673;44.412;11.918;2023-05-19T12:28:50;17.60;99.90
43049;DHT22;28673;44.412;11.918;2023-05-19T12:31:20;17.60;99.90
43049;DHT22;28673;44.412;11.918;2023-05-19T12:33:49;17.60;99.90
43049;DHT22;28673;44.412;11.918;2023-05-19T12:36:18;17.50;99.90
43049;DHT22;28673;44.412;11.918;2023-05-19T12:38:50;17.50;99.90
43049;DHT22;28673;44.412;11.918;2023-05-19T12:41:18;17.40;99.90
43049;DHT22;28673;44.412;11.918;2023-05-19T12:43:43;17.30;99.90
43049;DHT22;28673;44.412;11.918;2023-05-19T12:46:12;17.30;99.90
43049;DHT22;28673;44.412;11.918;2023-05-19T12:48:42;17.30;99.90
43049;DHT22;28673;44.412;11.918;2023-05-19T12:51:09;17.30;99.90
43049;DHT22;28673;44.412;11.918;2023-05-19T12:53:36;17.20;99.90
43049;DHT22;28673;44.412;11.918;2023-05-19T12:56:11;17.20;99.90
43049;DHT22;28673;44.412;11.918;2023-05-19T12:58:39;17.20;99.90
43049;DHT22;28673;44.412;11.918;2023-05-19T13:01:05;17.20;99.90
43049;DHT22;28673;44.412;11.918;2023-05-19T13:03:37;17.10;99.90
43049;DHT22;28673;44.412;11.918;2023-05-19T13:06:07;17.10;99.90
43049;DHT22;28673;44.412;11.918;2023-05-19T13:08:37;17.10;99.90
43049;DHT22;28673;44.412;11.918;2023-05-19T13:11:04;17.00;99.90
43049;DHT22;28673;44.412;11.918;2023-05-19T13:13:31;17.00;99.90
43049;DHT22;28673;44.412;11.918;2023-05-19T13:15:57;17.00;99.90
43049;DHT22;28673;44.412;11.918;2023-05-19T13:18:23;17.00;99.90
43049;DHT22;28673;44.412;11.918;2023-05-19T13:20:50;17.00;99.90
43049;DHT22;28673;44.412;11.918;2023-05-19T13:23:17;17.00;99.90
43049;DHT22;28673;44.412;11.918;2023-05-19T13:25:43;16.90;99.90
43049;DHT22;28673;44.412;11.918;2023-05-19T13:28:10;16.90;99.90
43049;DHT22;28673;44.412;11.918;2023-05-19T13:30:37;16.90;99.90
43049;DHT22;28673;44.412;11.918;2023-05-19T13:33:04;16.90;99.90
43049;DHT22;28673;44.412;11.918;2023-05-19T13:35:30;16.90;99.90
43049;DHT22;28673;44.412;11.918;2023-05-19T13:38:10;16.90;99.90
43049;DHT22;28673;44.412;11.918;2023-05-19T13:40:37;16.90;99.90
43049;DHT22;28673;44.412;11.918;2023-05-19T13:43:03;17.00;99.90
43049;DHT22;28673;44.412;11.918;2023-05-19T13:45:29;17.00;99.90
43049;DHT22;28673;44.412;11.918;2023-05-19T13:47:55;17.00;99.90
43049;DHT22;28673;44.412;11.918;2023-05-19T13:50:21;17.00;99.90
43049;DHT22;28673;44.412;11.918;2023-05-19T13:52:47;17.00;99.90
43049;DHT22;28673;44.412;11.918;2023-05-19T13:55:13;17.00;99.90
43049;DHT22;28673;44.412;11.918;2023-05-19T13:57:39;17.00;99.90
43049;DHT22;28673;44.412;11.918;2023-05-19T14:00:06;17.10;99.90
43049;DHT22;28673;44.412;11.918;2023-05-19T14:02:38;17.00;99.90
43049;DHT22;28673;44.412;11.918;2023-05-19T14:05:05;17.00;99.90
43049;DHT22;28673;44.412;11.918;2023-05-19T14:07:31;17.00;99.90
43049;DHT22;28673;44.412;11.918;2023-05-19T14:09:59;17.00;99.90
43049;DHT22;28673;44.412;11.918;2023-05-19T14:12:25;17.10;99.90
43049;DHT22;28673;44.412;11.918;2023-05-19T14:14:51;17.20;99.90
43049;DHT22;28673;44.412;11.918;2023-05-19T14:17:17;17.20;99.90
43049;DHT22;28673;44.412;11.918;2023-05-19T14:19:43;17.30;99.90
43049;DHT22;28673;44.412;11.918;2023-05-19T14:22:09;17.30;99.90
43049;DHT22;28673;44.412;11.918;2023-05-19T14:24:35;17.40;99.90
43049;DHT22;28673;44.412;11.918;2023-05-19T14:27:00;17.50;99.90
43049;DHT22;28673;44.412;11.918;2023-05-19T14:29:27;17.40;99.90
43049;DHT22;28673;44.412;11.918;2023-05-19T14:31:53;17.50;99.90
43049;DHT22;28673;44.412;11.918;2023-05-19T14:34:19;17.50;99.90
43049;DHT22;28673;44.412;11.918;2023-05-19T14:36:45;17.50;99.90
43049;DHT22;28673;44.412;11.918;2023-05-19T14:39:12;17.50;99.90
43049;DHT22;28673;44.412;11.918;2023-05-19T14:41:38;17.50;99.90
43049;DHT22;28673;44.412;11.918;2023-05-19T14:44:04;17.60;99.90
43049;DHT22;28673;44.412;11.918;2023-05-19T14:46:30;17.60;99.90
43049;DHT22;28673;44.412;11.918;2023-05-19T14:48:56;17.60;99.90
43049;DHT22;28673;44.412;11.918;2023-05-19T14:51:22;17.60;99.90
43049;DHT22;28673;44.412;11.918;2023-05-19T14:53:50;17.60;99.90
43049;DHT22;28673;44.412;11.918;2023-05-19T14:56:16;17.50;99.90
43049;DHT22;28673;44.412;11.918;2023-05-19T14:58:42;17.50;99.90
43049;DHT22;28673;44.412;11.918;2023-05-19T15:01:08;17.50;99.90
43049;DHT22;28673;44.412;11.918;2023-05-19T15:03:34;17.50;99.90
43049;DHT22;28673;44.412;11.918;2023-05-19T15:06:00;17.50;99.90
43049;DHT22;28673;44.412;11.918;2023-05-19T15:08:26;17.50;99.90
43049;DHT22;28673;44.412;11.918;2023-05-19T15:10:52;17.50;99.90
43049;DHT22;28673;44.412;11.918;2023-05-19T15:13:17;17.60;99.90
43049;DHT22;28673;44.412;11.918;2023-05-19T15:15:44;17.60;99.90
43049;DHT22;28673;44.412;11.918;2023-05-19T15:18:10;17.60;99.90
43049;DHT22;28673;44.412;11.918;2023-05-19T15:20:37;17.50;99.90
43049;DHT22;28673;44.412;11.918;2023-05-19T15:23:03;17.50;99.90
43049;DHT22;28673;44.412;11.918;2023-05-19T15:25:29;17.50;99.90
43049;DHT22;28673;44.412;11.918;2023-05-19T15:27:55;17.50;99.90
43049;DHT22;28673;44.412;11.918;2023-05-19T15:30:21;17.60;99.90
43049;DHT22;28673;44.412;11.918;2023-05-19T15:32:47;17.60;99.90
43049;DHT22;28673;44.412;11.918;2023-05-19T15:35:12;17.60;99.90
43049;DHT22;28673;44.412;11.918;2023-05-19T15:37:38;17.60;99.90
43049;DHT22;28673;44.412;11.918;2023-05-19T15:40:07;17.60;99.90
43049;DHT22;28673;44.412;11.918;2023-05-19T15:42:33;17.60;99.90
43049;DHT22;28673;44.412;11.918;2023-05-19T15:44:59;17.60;99.90
43049;DHT22;28673;44.412;11.918;2023-05-19T15:47:25;17.60;99.90
43049;DHT22;28673;44.412;11.918;2023-05-19T15:49:51;17.60;99.90
43049;DHT22;28673;44.412;11.918;2023-05-19T15:52:17;17.70;99.90
43049;DHT22;28673;44.412;11.918;2023-05-19T15:54:43;17.70;99.90
43049;DHT22;28673;44.412;11.918;2023-05-19T15:57:09;17.70;99.90
43049;DHT22;28673;44.412;11.918;2023-05-19T15:59:35;17.80;99.90
43049;DHT22;28673;44.412;11.918;2023-05-19T16:02:01;17.80;99.90
43049;DHT22;28673;44.412;11.918;2023-05-19T16:04:27;17.90;99.90
43049;DHT22;28673;44.412;11.918;2023-05-19T16:06:53;18.00;99.90
43049;DHT22;28673;44.412;11.918;2023-05-19T16:09:18;18.00;99.90
43049;DHT22;28673;44.412;11.918;2023-05-19T16:11:44;17.90;99.90
43049;DHT22;28673;44.412;11.918;2023-05-19T16:14:10;17.90;99.90